Karoi, Zimbabwe
Current Conditions -  °F | °C
As of 11:00 PM on Wednesday 17 Dec 2014 (Local Time) from FLKK Reporting Station
Clear Clear  
Wind Chill: 68°   Ceiling: Unl
Heat Index: 68°   Visibility: 6mi
Dew Point: 59°   Wind: 2mph
Humidity: 73%   Direction: 140°SE
Pressure: 30.12"   Gusts: NA
Location:  16.82°S, 29.68°E
Report Text: FLKK 172100Z 14002KT CAVOK 20/15 Q1020
Loading
Personal Weather Stations






























Interactive Weather Map New forecast layout! Learn more

10-Day Weather Forecast

Advertisements
Track Severe Weather on mobile